Townley, New Jersey
Current Conditions -  °F | °C
As of 8:51 AM on Sunday 23 Nov 2014 (Local Time) from KEWR Reporting Station
Overcast Overcast  
Wind Chill: 41°   Ceiling: 12000
Heat Index: 46°   Visibility: 10mi
Dew Point: 24°   Wind: 10mph
Humidity: 42%   Direction: 230°SW
Pressure: 30.22"   Gusts: 20mph
Location:  40.6941°N, 74.2694°W
Report Text: KEWR 231351Z 23009G17KT 10SM FEW080 OVC120 08/M04 A3022 RMK AO2 SLP231 T00781044
Loading
Personal Weather Stations






























Interactive Weather Map New forecast layout! Learn more

10-Day Weather Forecast

Advertisements
Track Severe Weather on mobile